sensor_id;sensor_type;location;lat;lon;timestamp;P1;durP1;ratioP1;P2;durP2;ratioP2
39776;SDS011;25453;48.162;14.510;2023-08-30T00:01:28;1.33;;;0.77;;
39776;SDS011;25453;48.162;14.510;2023-08-30T00:03:55;1.02;;;0.30;;
39776;SDS011;25453;48.162;14.510;2023-08-30T00:06:23;1.17;;;0.47;;
39776;SDS011;25453;48.162;14.510;2023-08-30T00:08:50;1.35;;;0.57;;
39776;SDS011;25453;48.162;14.510;2023-08-30T00:11:17;1.20;;;0.50;;
39776;SDS011;25453;48.162;14.510;2023-08-30T00:13:44;1.83;;;0.60;;
39776;SDS011;25453;48.162;14.510;2023-08-30T00:16:11;1.23;;;0.52;;
39776;SDS011;25453;48.162;14.510;2023-08-30T00:18:39;0.40;;;0.32;;
39776;SDS011;25453;48.162;14.510;2023-08-30T00:21:06;1.02;;;0.40;;
39776;SDS011;25453;48.162;14.510;2023-08-30T00:23:33;1.20;;;0.70;;
39776;SDS011;25453;48.162;14.510;2023-08-30T00:26:01;0.90;;;0.60;;
39776;SDS011;25453;48.162;14.510;2023-08-30T00:28:28;1.10;;;0.70;;
39776;SDS011;25453;48.162;14.510;2023-08-30T00:30:55;1.17;;;0.50;;
39776;SDS011;25453;48.162;14.510;2023-08-30T00:33:22;1.35;;;0.70;;
39776;SDS011;25453;48.162;14.510;2023-08-30T00:35:56;1.67;;;0.77;;
39776;SDS011;25453;48.162;14.510;2023-08-30T00:38:28;1.95;;;0.80;;
39776;SDS011;25453;48.162;14.510;2023-08-30T00:40:56;1.73;;;0.77;;
39776;SDS011;25453;48.162;14.510;2023-08-30T00:43:23;1.40;;;0.68;;
39776;SDS011;25453;48.162;14.510;2023-08-30T00:45:50;1.52;;;0.52;;
39776;SDS011;25453;48.162;14.510;2023-08-30T00:48:18;0.80;;;0.60;;
39776;SDS011;25453;48.162;14.510;2023-08-30T00:50:47;2.55;;;0.57;;
39776;SDS011;25453;48.162;14.510;2023-08-30T00:53:14;0.80;;;0.60;;
39776;SDS011;25453;48.162;14.510;2023-08-30T00:55:42;1.08;;;0.50;;
39776;SDS011;25453;48.162;14.510;2023-08-30T00:58:10;1.20;;;0.70;;
39776;SDS011;25453;48.162;14.510;2023-08-30T01:00:38;1.52;;;0.63;;
39776;SDS011;25453;48.162;14.510;2023-08-30T01:03:06;1.10;;;0.70;;
39776;SDS011;25453;48.162;14.510;2023-08-30T01:05:36;0.93;;;0.60;;
39776;SDS011;25453;48.162;14.510;2023-08-30T01:08:04;1.80;;;0.70;;
39776;SDS011;25453;48.162;14.510;2023-08-30T01:10:44;1.95;;;0.85;;
39776;SDS011;25453;48.162;14.510;2023-08-30T01:13:22;1.38;;;0.85;;
39776;SDS011;25453;48.162;14.510;2023-08-30T01:15:51;1.63;;;0.70;;
39776;SDS011;25453;48.162;14.510;2023-08-30T01:18:20;1.90;;;0.70;;
39776;SDS011;25453;48.162;14.510;2023-08-30T01:20:53;1.70;;;0.68;;
39776;SDS011;25453;48.162;14.510;2023-08-30T01:26:26;1.02;;;0.70;;
39776;SDS011;25453;48.162;14.510;2023-08-30T01:29:27;1.80;;;0.75;;
39776;SDS011;25453;48.162;14.510;2023-08-30T01:31:56;0.90;;;0.52;;
39776;SDS011;25453;48.162;14.510;2023-08-30T01:34:24;1.30;;;0.70;;
39776;SDS011;25453;48.162;14.510;2023-08-30T01:36:52;1.02;;;0.40;;
39776;SDS011;25453;48.162;14.510;2023-08-30T01:39:19;1.20;;;0.80;;
39776;SDS011;25453;48.162;14.510;2023-08-30T01:41:49;1.10;;;0.60;;
39776;SDS011;25453;48.162;14.510;2023-08-30T01:44:18;1.00;;;0.60;;
39776;SDS011;25453;48.162;14.510;2023-08-30T01:46:46;0.77;;;0.43;;
39776;SDS011;25453;48.162;14.510;2023-08-30T01:49:14;0.73;;;0.55;;
39776;SDS011;25453;48.162;14.510;2023-08-30T01:51:42;0.60;;;0.50;;
39776;SDS011;25453;48.162;14.510;2023-08-30T01:54:09;1.15;;;0.57;;
39776;SDS011;25453;48.162;14.510;2023-08-30T01:56:39;0.65;;;0.43;;
39776;SDS011;25453;48.162;14.510;2023-08-30T01:59:07;0.90;;;0.60;;
39776;SDS011;25453;48.162;14.510;2023-08-30T02:01:34;0.43;;;0.40;;
39776;SDS011;25453;48.162;14.510;2023-08-30T02:04:01;0.57;;;0.43;;
39776;SDS011;25453;48.162;14.510;2023-08-30T02:06:33;0.75;;;0.50;;
39776;SDS011;25453;48.162;14.510;2023-08-30T02:09:16;1.13;;;0.40;;
39776;SDS011;25453;48.162;14.510;2023-08-30T02:11:47;0.95;;;0.40;;
39776;SDS011;25453;48.162;14.510;2023-08-30T02:14:17;1.27;;;0.40;;
39776;SDS011;25453;48.162;14.510;2023-08-30T02:16:45;0.80;;;0.45;;
39776;SDS011;25453;48.162;14.510;2023-08-30T02:19:13;0.60;;;0.40;;
39776;SDS011;25453;48.162;14.510;2023-08-30T02:21:47;1.02;;;0.60;;
39776;SDS011;25453;48.162;14.510;2023-08-30T02:24:14;1.05;;;0.60;;
39776;SDS011;25453;48.162;14.510;2023-08-30T02:26:42;1.10;;;0.60;;
39776;SDS011;25453;48.162;14.510;2023-08-30T02:29:09;0.93;;;0.65;;
39776;SDS011;25453;48.162;14.510;2023-08-30T02:31:36;1.23;;;0.65;;
39776;SDS011;25453;48.162;14.510;2023-08-30T02:34:03;0.85;;;0.47;;
39776;SDS011;25453;48.162;14.510;2023-08-30T02:36:30;0.98;;;0.50;;
39776;SDS011;25453;48.162;14.510;2023-08-30T02:38:58;0.73;;;0.40;;
39776;SDS011;25453;48.162;14.510;2023-08-30T02:41:25;0.30;;;0.30;;
39776;SDS011;25453;48.162;14.510;2023-08-30T02:43:52;0.88;;;0.40;;
39776;SDS011;25453;48.162;14.510;2023-08-30T02:46:19;1.25;;;0.65;;
39776;SDS011;25453;48.162;14.510;2023-08-30T02:48:46;0.32;;;0.32;;
39776;SDS011;25453;48.162;14.510;2023-08-30T02:51:14;0.40;;;0.40;;
39776;SDS011;25453;48.162;14.510;2023-08-30T02:53:41;0.52;;;0.40;;
39776;SDS011;25453;48.162;14.510;2023-08-30T02:56:08;0.45;;;0.38;;
39776;SDS011;25453;48.162;14.510;2023-08-30T02:58:35;0.40;;;0.30;;
39776;SDS011;25453;48.162;14.510;2023-08-30T03:01:02;1.15;;;0.60;;
39776;SDS011;25453;48.162;14.510;2023-08-30T03:03:30;0.98;;;0.43;;
39776;SDS011;25453;48.162;14.510;2023-08-30T03:05:57;0.38;;;0.30;;
39776;SDS011;25453;48.162;14.510;2023-08-30T03:08:24;0.32;;;0.30;;
39776;SDS011;25453;48.162;14.510;2023-08-30T03:10:51;0.25;;;0.20;;
39776;SDS011;25453;48.162;14.510;2023-08-30T03:13:19;0.28;;;0.28;;
39776;SDS011;25453;48.162;14.510;2023-08-30T03:15:46;1.08;;;0.68;;
39776;SDS011;25453;48.162;14.510;2023-08-30T03:18:13;0.40;;;0.40;;
39776;SDS011;25453;48.162;14.510;2023-08-30T03:20:40;0.20;;;0.20;;
39776;SDS011;25453;48.162;14.510;2023-08-30T03:23:07;0.50;;;0.30;;
39776;SDS011;25453;48.162;14.510;2023-08-30T03:25:35;0.75;;;0.40;;
39776;SDS011;25453;48.162;14.510;2023-08-30T03:28:02;0.50;;;0.40;;
39776;SDS011;25453;48.162;14.510;2023-08-30T03:30:29;0.57;;;0.40;;
39776;SDS011;25453;48.162;14.510;2023-08-30T03:32:57;0.43;;;0.40;;
39776;SDS011;25453;48.162;14.510;2023-08-30T03:35:24;0.68;;;0.40;;
39776;SDS011;25453;48.162;14.510;2023-08-30T03:37:52;1.35;;;0.60;;
39776;SDS011;25453;48.162;14.510;2023-08-30T03:40:19;0.32;;;0.30;;
39776;SDS011;25453;48.162;14.510;2023-08-30T03:42:46;0.63;;;0.40;;
39776;SDS011;25453;48.162;14.510;2023-08-30T03:45:13;1.13;;;0.60;;
39776;SDS011;25453;48.162;14.510;2023-08-30T03:47:40;1.10;;;0.63;;
39776;SDS011;25453;48.162;14.510;2023-08-30T03:50:08;1.10;;;0.63;;
39776;SDS011;25453;48.162;14.510;2023-08-30T03:52:35;0.63;;;0.40;;
39776;SDS011;25453;48.162;14.510;2023-08-30T03:55:03;0.98;;;0.45;;
39776;SDS011;25453;48.162;14.510;2023-08-30T03:57:30;0.77;;;0.47;;
39776;SDS011;25453;48.162;14.510;2023-08-30T03:59:57;1.05;;;0.52;;
39776;SDS011;25453;48.162;14.510;2023-08-30T04:02:25;1.17;;;0.68;;
39776;SDS011;25453;48.162;14.510;2023-08-30T04:04:52;1.02;;;0.63;;
39776;SDS011;25453;48.162;14.510;2023-08-30T04:07:19;1.58;;;0.65;;
39776;SDS011;25453;48.162;14.510;2023-08-30T04:09:46;3.90;;;0.80;;
39776;SDS011;25453;48.162;14.510;2023-08-30T04:12:13;1.73;;;0.90;;
39776;SDS011;25453;48.162;14.510;2023-08-30T04:14:40;1.67;;;1.00;;
39776;SDS011;25453;48.162;14.510;2023-08-30T04:17:07;1.40;;;0.60;;
39776;SDS011;25453;48.162;14.510;2023-08-30T04:19:35;0.90;;;0.60;;
39776;SDS011;25453;48.162;14.510;2023-08-30T04:22:02;1.40;;;0.90;;
39776;SDS011;25453;48.162;14.510;2023-08-30T04:24:29;1.50;;;0.98;;
39776;SDS011;25453;48.162;14.510;2023-08-30T04:26:56;2.05;;;1.20;;
39776;SDS011;25453;48.162;14.510;2023-08-30T04:29:25;1.55;;;0.80;;
39776;SDS011;25453;48.162;14.510;2023-08-30T04:31:53;1.65;;;1.10;;
39776;SDS011;25453;48.162;14.510;2023-08-30T04:34:20;1.70;;;1.20;;
39776;SDS011;25453;48.162;14.510;2023-08-30T04:36:49;2.38;;;1.25;;
39776;SDS011;25453;48.162;14.510;2023-08-30T04:39:16;1.55;;;1.05;;
39776;SDS011;25453;48.162;14.510;2023-08-30T04:41:43;3.22;;;1.02;;
39776;SDS011;25453;48.162;14.510;2023-08-30T04:44:10;2.35;;;1.30;;
39776;SDS011;25453;48.162;14.510;2023-08-30T04:46:38;2.25;;;1.05;;
39776;SDS011;25453;48.162;14.510;2023-08-30T04:49:05;2.40;;;1.05;;
39776;SDS011;25453;48.162;14.510;2023-08-30T04:51:32;2.85;;;1.52;;
39776;SDS011;25453;48.162;14.510;2023-08-30T04:54:00;2.28;;;1.25;;
39776;SDS011;25453;48.162;14.510;2023-08-30T04:56:27;3.58;;;2.00;;
39776;SDS011;25453;48.162;14.510;2023-08-30T04:58:54;2.78;;;1.27;;
39776;SDS011;25453;48.162;14.510;2023-08-30T05:01:23;1.70;;;0.90;;
39776;SDS011;25453;48.162;14.510;2023-08-30T05:03:51;2.20;;;1.23;;
39776;SDS011;25453;48.162;14.510;2023-08-30T05:06:18;1.70;;;1.08;;
39776;SDS011;25453;48.162;14.510;2023-08-30T05:08:45;2.88;;;1.15;;
39776;SDS011;25453;48.162;14.510;2023-08-30T05:11:12;1.15;;;0.98;;
39776;SDS011;25453;48.162;14.510;2023-08-30T05:13:40;1.70;;;1.23;;
39776;SDS011;25453;48.162;14.510;2023-08-30T05:16:07;2.15;;;1.10;;
39776;SDS011;25453;48.162;14.510;2023-08-30T05:18:34;2.13;;;1.15;;
39776;SDS011;25453;48.162;14.510;2023-08-30T05:21:01;2.35;;;1.20;;
39776;SDS011;25453;48.162;14.510;2023-08-30T05:23:32;2.25;;;1.23;;
39776;SDS011;25453;48.162;14.510;2023-08-30T05:25:59;2.42;;;1.30;;
39776;SDS011;25453;48.162;14.510;2023-08-30T05:28:26;3.58;;;1.10;;
39776;SDS011;25453;48.162;14.510;2023-08-30T05:30:54;1.77;;;1.05;;
39776;SDS011;25453;48.162;14.510;2023-08-30T05:33:21;1.50;;;0.90;;
39776;SDS011;25453;48.162;14.510;2023-08-30T05:35:48;2.53;;;1.20;;
39776;SDS011;25453;48.162;14.510;2023-08-30T05:38:15;2.28;;;0.98;;
39776;SDS011;25453;48.162;14.510;2023-08-30T05:40:42;2.17;;;1.13;;
39776;SDS011;25453;48.162;14.510;2023-08-30T05:43:11;1.85;;;1.10;;
39776;SDS011;25453;48.162;14.510;2023-08-30T05:45:38;2.13;;;1.17;;
39776;SDS011;25453;48.162;14.510;2023-08-30T05:48:06;2.28;;;1.23;;
39776;SDS011;25453;48.162;14.510;2023-08-30T05:50:37;2.72;;;1.45;;
39776;SDS011;25453;48.162;14.510;2023-08-30T05:53:04;2.00;;;1.20;;
39776;SDS011;25453;48.162;14.510;2023-08-30T05:55:31;1.75;;;1.00;;
39776;SDS011;25453;48.162;14.510;2023-08-30T05:57:58;3.03;;;1.55;;
39776;SDS011;25453;48.162;14.510;2023-08-30T06:00:26;2.92;;;1.48;;
39776;SDS011;25453;48.162;14.510;2023-08-30T06:02:53;1.65;;;1.17;;
39776;SDS011;25453;48.162;14.510;2023-08-30T06:05:20;3.28;;;1.52;;
39776;SDS011;25453;48.162;14.510;2023-08-30T06:07:47;1.98;;;1.25;;
39776;SDS011;25453;48.162;14.510;2023-08-30T06:10:15;2.35;;;1.40;;
39776;SDS011;25453;48.162;14.510;2023-08-30T06:12:42;2.22;;;1.35;;
39776;SDS011;25453;48.162;14.510;2023-08-30T06:15:09;2.97;;;1.50;;
39776;SDS011;25453;48.162;14.510;2023-08-30T06:17:36;2.78;;;1.35;;
39776;SDS011;25453;48.162;14.510;2023-08-30T06:20:04;2.10;;;1.10;;
39776;SDS011;25453;48.162;14.510;2023-08-30T06:22:31;2.92;;;1.10;;
39776;SDS011;25453;48.162;14.510;2023-08-30T06:24:58;2.22;;;1.30;;
39776;SDS011;25453;48.162;14.510;2023-08-30T06:27:26;2.45;;;1.38;;
39776;SDS011;25453;48.162;14.510;2023-08-30T06:29:53;1.98;;;1.20;;
39776;SDS011;25453;48.162;14.510;2023-08-30T06:32:20;1.80;;;1.17;;
39776;SDS011;25453;48.162;14.510;2023-08-30T06:34:47;3.03;;;1.42;;
39776;SDS011;25453;48.162;14.510;2023-08-30T06:37:14;2.38;;;1.33;;
39776;SDS011;25453;48.162;14.510;2023-08-30T06:39:42;3.17;;;1.60;;
39776;SDS011;25453;48.162;14.510;2023-08-30T06:42:09;2.72;;;1.45;;
39776;SDS011;25453;48.162;14.510;2023-08-30T06:44:36;1.58;;;1.05;;
39776;SDS011;25453;48.162;14.510;2023-08-30T06:47:03;3.05;;;1.15;;
39776;SDS011;25453;48.162;14.510;2023-08-30T06:49:31;1.40;;;0.80;;
39776;SDS011;25453;48.162;14.510;2023-08-30T06:51:58;2.10;;;1.23;;
39776;SDS011;25453;48.162;14.510;2023-08-30T06:54:28;4.25;;;1.45;;
39776;SDS011;25453;48.162;14.510;2023-08-30T06:56:59;2.38;;;1.40;;
39776;SDS011;25453;48.162;14.510;2023-08-30T06:59:27;2.28;;;1.38;;
39776;SDS011;25453;48.162;14.510;2023-08-30T07:01:55;1.38;;;1.13;;
39776;SDS011;25453;48.162;14.510;2023-08-30T07:04:22;2.42;;;1.55;;
39776;SDS011;25453;48.162;14.510;2023-08-30T07:06:50;2.05;;;1.27;;
39776;SDS011;25453;48.162;14.510;2023-08-30T07:09:17;1.77;;;1.20;;
39776;SDS011;25453;48.162;14.510;2023-08-30T07:11:48;2.05;;;1.17;;
39776;SDS011;25453;48.162;14.510;2023-08-30T07:14:15;2.92;;;1.40;;
39776;SDS011;25453;48.162;14.510;2023-08-30T07:16:42;2.03;;;1.25;;
39776;SDS011;25453;48.162;14.510;2023-08-30T07:19:10;3.53;;;1.38;;
39776;SDS011;25453;48.162;14.510;2023-08-30T07:21:37;1.77;;;0.98;;
39776;SDS011;25453;48.162;14.510;2023-08-30T07:24:08;2.08;;;1.20;;
39776;SDS011;25453;48.162;14.510;2023-08-30T07:26:35;2.90;;;1.10;;
39776;SDS011;25453;48.162;14.510;2023-08-30T07:29:03;3.75;;;1.75;;
39776;SDS011;25453;48.162;14.510;2023-08-30T07:31:33;2.15;;;1.15;;
39776;SDS011;25453;48.162;14.510;2023-08-30T07:34:00;2.00;;;1.13;;
39776;SDS011;25453;48.162;14.510;2023-08-30T07:36:29;2.35;;;1.30;;
39776;SDS011;25453;48.162;14.510;2023-08-30T07:38:59;2.03;;;1.20;;
39776;SDS011;25453;48.162;14.510;2023-08-30T07:41:27;1.52;;;1.08;;
39776;SDS011;25453;48.162;14.510;2023-08-30T07:43:54;2.17;;;1.30;;
39776;SDS011;25453;48.162;14.510;2023-08-30T07:46:22;2.53;;;1.42;;
39776;SDS011;25453;48.162;14.510;2023-08-30T07:48:49;2.03;;;1.27;;
39776;SDS011;25453;48.162;14.510;2023-08-30T07:51:16;1.63;;;1.08;;
39776;SDS011;25453;48.162;14.510;2023-08-30T07:53:44;2.20;;;1.25;;
39776;SDS011;25453;48.162;14.510;2023-08-30T07:56:11;2.85;;;1.70;;
39776;SDS011;25453;48.162;14.510;2023-08-30T07:58:40;3.13;;;1.48;;
39776;SDS011;25453;48.162;14.510;2023-08-30T08:01:08;1.60;;;0.90;;
39776;SDS011;25453;48.162;14.510;2023-08-30T08:03:36;2.03;;;1.20;;
39776;SDS011;25453;48.162;14.510;2023-08-30T08:06:10;2.22;;;1.30;;
39776;SDS011;25453;48.162;14.510;2023-08-30T08:08:38;2.72;;;1.10;;
39776;SDS011;25453;48.162;14.510;2023-08-30T08:11:05;2.92;;;1.98;;
39776;SDS011;25453;48.162;14.510;2023-08-30T08:13:32;3.10;;;1.80;;
39776;SDS011;25453;48.162;14.510;2023-08-30T08:16:00;2.30;;;1.50;;
39776;SDS011;25453;48.162;14.510;2023-08-30T08:18:27;2.70;;;1.38;;
39776;SDS011;25453;48.162;14.510;2023-08-30T08:20:55;2.05;;;1.40;;
39776;SDS011;25453;48.162;14.510;2023-08-30T08:23:22;2.13;;;1.10;;
39776;SDS011;25453;48.162;14.510;2023-08-30T08:25:56;1.85;;;1.10;;
39776;SDS011;25453;48.162;14.510;2023-08-30T08:28:24;2.75;;;1.40;;
39776;SDS011;25453;48.162;14.510;2023-08-30T08:30:55;2.22;;;1.40;;
39776;SDS011;25453;48.162;14.510;2023-08-30T08:33:22;2.45;;;1.60;;
39776;SDS011;25453;48.162;14.510;2023-08-30T08:35:50;3.25;;;1.42;;
39776;SDS011;25453;48.162;14.510;2023-08-30T08:38:17;2.88;;;1.52;;
39776;SDS011;25453;48.162;14.510;2023-08-30T08:40:45;2.13;;;1.63;;
39776;SDS011;25453;48.162;14.510;2023-08-30T08:43:12;1.85;;;1.30;;
39776;SDS011;25453;48.162;14.510;2023-08-30T08:45:40;2.67;;;1.17;;
39776;SDS011;25453;48.162;14.510;2023-08-30T08:48:07;2.42;;;1.50;;
39776;SDS011;25453;48.162;14.510;2023-08-30T08:50:36;2.30;;;1.40;;
39776;SDS011;25453;48.162;14.510;2023-08-30T08:53:04;1.88;;;1.23;;
39776;SDS011;25453;48.162;14.510;2023-08-30T08:55:31;2.70;;;1.10;;
39776;SDS011;25453;48.162;14.510;2023-08-30T08:58:01;2.40;;;1.58;;
39776;SDS011;25453;48.162;14.510;2023-08-30T09:00:30;3.05;;;1.65;;
39776;SDS011;25453;48.162;14.510;2023-08-30T09:03:00;2.30;;;1.38;;
39776;SDS011;25453;48.162;14.510;2023-08-30T09:05:31;2.85;;;1.50;;
39776;SDS011;25453;48.162;14.510;2023-08-30T09:08:08;2.60;;;1.63;;
39776;SDS011;25453;48.162;14.510;2023-08-30T09:10:41;2.70;;;1.58;;
39776;SDS011;25453;48.162;14.510;2023-08-30T09:13:27;2.33;;;1.63;;
39776;SDS011;25453;48.162;14.510;2023-08-30T09:15:57;2.38;;;1.85;;
39776;SDS011;25453;48.162;14.510;2023-08-30T09:18:25;3.15;;;1.67;;
39776;SDS011;25453;48.162;14.510;2023-08-30T09:21:08;2.22;;;1.48;;
39776;SDS011;25453;48.162;14.510;2023-08-30T09:23:36;2.47;;;1.35;;
39776;SDS011;25453;48.162;14.510;2023-08-30T09:26:04;2.72;;;1.77;;
39776;SDS011;25453;48.162;14.510;2023-08-30T09:28:41;2.33;;;1.50;;
39776;SDS011;25453;48.162;14.510;2023-08-30T09:31:16;1.85;;;1.17;;
39776;SDS011;25453;48.162;14.510;2023-08-30T09:33:48;1.92;;;1.15;;
39776;SDS011;25453;48.162;14.510;2023-08-30T09:36:25;4.13;;;1.50;;
39776;SDS011;25453;48.162;14.510;2023-08-30T09:38:58;2.13;;;1.30;;
39776;SDS011;25453;48.162;14.510;2023-08-30T09:41:42;3.00;;;1.40;;
39776;SDS011;25453;48.162;14.510;2023-08-30T09:44:12;2.47;;;1.20;;
39776;SDS011;25453;48.162;14.510;2023-08-30T09:46:45;2.58;;;1.58;;
39776;SDS011;25453;48.162;14.510;2023-08-30T09:49:18;2.30;;;1.33;;
39776;SDS011;25453;48.162;14.510;2023-08-30T09:51:49;2.92;;;1.58;;
39776;SDS011;25453;48.162;14.510;2023-08-30T09:54:38;2.00;;;1.50;;
39776;SDS011;25453;48.162;14.510;2023-08-30T09:57:14;2.40;;;1.45;;
39776;SDS011;25453;48.162;14.510;2023-08-30T09:59:43;3.30;;;1.98;;
39776;SDS011;25453;48.162;14.510;2023-08-30T10:02:14;2.42;;;1.30;;
39776;SDS011;25453;48.162;14.510;2023-08-30T10:04:42;2.65;;;1.70;;
39776;SDS011;25453;48.162;14.510;2023-08-30T10:07:10;2.58;;;1.38;;
39776;SDS011;25453;48.162;14.510;2023-08-30T10:09:38;3.08;;;1.85;;
39776;SDS011;25453;48.162;14.510;2023-08-30T10:12:20;3.22;;;1.50;;
39776;SDS011;25453;48.162;14.510;2023-08-30T10:14:50;3.95;;;1.48;;
39776;SDS011;25453;48.162;14.510;2023-08-30T10:17:19;1.95;;;1.25;;
39776;SDS011;25453;48.162;14.510;2023-08-30T10:19:49;3.22;;;1.48;;
39776;SDS011;25453;48.162;14.510;2023-08-30T10:22:18;2.40;;;1.35;;
39776;SDS011;25453;48.162;14.510;2023-08-30T10:27:38;2.30;;;1.33;;
39776;SDS011;25453;48.162;14.510;2023-08-30T10:30:09;1.65;;;1.13;;
39776;SDS011;25453;48.162;14.510;2023-08-30T10:32:39;1.92;;;1.33;;
39776;SDS011;25453;48.162;14.510;2023-08-30T10:35:10;2.08;;;1.30;;
39776;SDS011;25453;48.162;14.510;2023-08-30T10:37:40;4.20;;;1.45;;
39776;SDS011;25453;48.162;14.510;2023-08-30T10:40:08;1.23;;;0.85;;
39776;SDS011;25453;48.162;14.510;2023-08-30T10:42:35;2.63;;;1.23;;
39776;SDS011;25453;48.162;14.510;2023-08-30T10:45:05;2.15;;;1.23;;
39776;SDS011;25453;48.162;14.510;2023-08-30T10:47:37;1.80;;;1.00;;
39776;SDS011;25453;48.162;14.510;2023-08-30T10:50:12;2.67;;;1.52;;
39776;SDS011;25453;48.162;14.510;2023-08-30T10:52:39;1.20;;;0.75;;
39776;SDS011;25453;48.162;14.510;2023-08-30T10:57:35;1.08;;;0.88;;
39776;SDS011;25453;48.162;14.510;2023-08-30T11:02:48;2.05;;;1.00;;
39776;SDS011;25453;48.162;14.510;2023-08-30T11:05:17;2.92;;;1.52;;
39776;SDS011;25453;48.162;14.510;2023-08-30T11:07:45;1.40;;;0.93;;
39776;SDS011;25453;48.162;14.510;2023-08-30T11:10:13;1.92;;;1.08;;
39776;SDS011;25453;48.162;14.510;2023-08-30T11:12:41;1.55;;;1.10;;
39776;SDS011;25453;48.162;14.510;2023-08-30T11:15:10;1.42;;;1.00;;
39776;SDS011;25453;48.162;14.510;2023-08-30T11:17:39;1.38;;;0.98;;
39776;SDS011;25453;48.162;14.510;2023-08-30T11:20:08;1.00;;;0.82;;
39776;SDS011;25453;48.162;14.510;2023-08-30T11:22:40;1.00;;;0.80;;
39776;SDS011;25453;48.162;14.510;2023-08-30T11:25:10;1.55;;;1.00;;
39776;SDS011;25453;48.162;14.510;2023-08-30T11:27:38;1.85;;;1.02;;
39776;SDS011;25453;48.162;14.510;2023-08-30T11:30:06;1.85;;;1.05;;
39776;SDS011;25453;48.162;14.510;2023-08-30T11:35:03;1.60;;;1.10;;
39776;SDS011;25453;48.162;14.510;2023-08-30T11:37:31;1.20;;;0.85;;
39776;SDS011;25453;48.162;14.510;2023-08-30T11:40:00;2.00;;;1.13;;
39776;SDS011;25453;48.162;14.510;2023-08-30T11:42:28;1.50;;;1.00;;
39776;SDS011;25453;48.162;14.510;2023-08-30T11:45:00;1.58;;;1.10;;
39776;SDS011;25453;48.162;14.510;2023-08-30T11:47:27;1.15;;;0.93;;
39776;SDS011;25453;48.162;14.510;2023-08-30T11:49:56;1.63;;;1.00;;
39776;SDS011;25453;48.162;14.510;2023-08-30T11:52:24;1.48;;;0.93;;
39776;SDS011;25453;48.162;14.510;2023-08-30T11:54:52;1.33;;;0.90;;
39776;SDS011;25453;48.162;14.510;2023-08-30T11:57:20;1.30;;;0.98;;
39776;SDS011;25453;48.162;14.510;2023-08-30T11:59:48;2.20;;;0.85;;
39776;SDS011;25453;48.162;14.510;2023-08-30T12:02:16;2.58;;;1.52;;
39776;SDS011;25453;48.162;14.510;2023-08-30T12:04:45;1.65;;;1.00;;
39776;SDS011;25453;48.162;14.510;2023-08-30T12:07:23;1.52;;;1.17;;
39776;SDS011;25453;48.162;14.510;2023-08-30T12:10:03;1.55;;;0.90;;
39776;SDS011;25453;48.162;14.510;2023-08-30T12:12:31;1.55;;;1.10;;
39776;SDS011;25453;48.162;14.510;2023-08-30T12:14:58;1.30;;;0.90;;
39776;SDS011;25453;48.162;14.510;2023-08-30T12:17:26;1.20;;;0.80;;
39776;SDS011;25453;48.162;14.510;2023-08-30T12:19:56;1.75;;;0.90;;
39776;SDS011;25453;48.162;14.510;2023-08-30T12:22:34;1.30;;;0.80;;
39776;SDS011;25453;48.162;14.510;2023-08-30T12:27:48;1.35;;;0.90;;
39776;SDS011;25453;48.162;14.510;2023-08-30T12:30:16;2.05;;;0.90;;
39776;SDS011;25453;48.162;14.510;2023-08-30T12:32:44;1.35;;;0.90;;
39776;SDS011;25453;48.162;14.510;2023-08-30T12:35:12;1.40;;;0.82;;
39776;SDS011;25453;48.162;14.510;2023-08-30T12:37:40;1.45;;;0.80;;
39776;SDS011;25453;48.162;14.510;2023-08-30T12:40:07;0.93;;;0.65;;
39776;SDS011;25453;48.162;14.510;2023-08-30T12:42:34;0.63;;;0.57;;
39776;SDS011;25453;48.162;14.510;2023-08-30T12:45:02;1.77;;;0.95;;
39776;SDS011;25453;48.162;14.510;2023-08-30T12:47:30;1.42;;;0.90;;
39776;SDS011;25453;48.162;14.510;2023-08-30T12:49:57;1.15;;;0.77;;
39776;SDS011;25453;48.162;14.510;2023-08-30T12:52:24;1.58;;;0.88;;
39776;SDS011;25453;48.162;14.510;2023-08-30T12:54:51;1.20;;;0.88;;
39776;SDS011;25453;48.162;14.510;2023-08-30T12:57:20;1.02;;;0.68;;
39776;SDS011;25453;48.162;14.510;2023-08-30T12:59:47;2.28;;;1.10;;
39776;SDS011;25453;48.162;14.510;2023-08-30T13:02:14;1.60;;;0.90;;
39776;SDS011;25453;48.162;14.510;2023-08-30T13:04:42;1.70;;;1.00;;
39776;SDS011;25453;48.162;14.510;2023-08-30T13:07:09;2.10;;;1.10;;
39776;SDS011;25453;48.162;14.510;2023-08-30T13:09:36;1.17;;;0.90;;
39776;SDS011;25453;48.162;14.510;2023-08-30T13:12:03;1.70;;;1.20;;
39776;SDS011;25453;48.162;14.510;2023-08-30T13:14:31;1.15;;;0.80;;
39776;SDS011;25453;48.162;14.510;2023-08-30T13:16:58;1.40;;;0.90;;
39776;SDS011;25453;48.162;14.510;2023-08-30T13:19:25;1.13;;;0.65;;
39776;SDS011;25453;48.162;14.510;2023-08-30T13:21:52;1.27;;;0.80;;
39776;SDS011;25453;48.162;14.510;2023-08-30T13:24:20;1.98;;;0.82;;
39776;SDS011;25453;48.162;14.510;2023-08-30T13:26:47;1.25;;;0.80;;
39776;SDS011;25453;48.162;14.510;2023-08-30T13:29:14;0.98;;;0.75;;
39776;SDS011;25453;48.162;14.510;2023-08-30T13:31:41;1.10;;;0.57;;
39776;SDS011;25453;48.162;14.510;2023-08-30T13:34:09;2.88;;;1.02;;
39776;SDS011;25453;48.162;14.510;2023-08-30T13:36:36;2.05;;;0.80;;
39776;SDS011;25453;48.162;14.510;2023-08-30T13:39:03;1.45;;;0.80;;
39776;SDS011;25453;48.162;14.510;2023-08-30T13:41:30;0.77;;;0.60;;
39776;SDS011;25453;48.162;14.510;2023-08-30T13:43:57;1.65;;;0.70;;
39776;SDS011;25453;48.162;14.510;2023-08-30T13:46:28;0.77;;;0.50;;
39776;SDS011;25453;48.162;14.510;2023-08-30T13:48:55;1.13;;;0.70;;
39776;SDS011;25453;48.162;14.510;2023-08-30T13:51:23;0.70;;;0.50;;
39776;SDS011;25453;48.162;14.510;2023-08-30T13:53:52;0.40;;;0.40;;
39776;SDS011;25453;48.162;14.510;2023-08-30T13:56:19;0.45;;;0.40;;
39776;SDS011;25453;48.162;14.510;2023-08-30T13:58:46;0.63;;;0.47;;
39776;SDS011;25453;48.162;14.510;2023-08-30T14:01:14;0.55;;;0.43;;
39776;SDS011;25453;48.162;14.510;2023-08-30T14:03:41;0.47;;;0.40;;
39776;SDS011;25453;48.162;14.510;2023-08-30T14:06:09;0.60;;;0.45;;
39776;SDS011;25453;48.162;14.510;2023-08-30T14:08:36;0.98;;;0.47;;
39776;SDS011;25453;48.162;14.510;2023-08-30T14:11:03;0.82;;;0.50;;
39776;SDS011;25453;48.162;14.510;2023-08-30T14:13:33;1.05;;;0.63;;
39776;SDS011;25453;48.162;14.510;2023-08-30T14:16:00;1.10;;;0.50;;
39776;SDS011;25453;48.162;14.510;2023-08-30T14:18:30;1.02;;;0.50;;
39776;SDS011;25453;48.162;14.510;2023-08-30T14:20:58;0.75;;;0.50;;
39776;SDS011;25453;48.162;14.510;2023-08-30T14:23:26;0.68;;;0.50;;
39776;SDS011;25453;48.162;14.510;2023-08-30T14:25:58;0.80;;;0.55;;
39776;SDS011;25453;48.162;14.510;2023-08-30T14:28:26;0.57;;;0.40;;
39776;SDS011;25453;48.162;14.510;2023-08-30T14:30:54;1.33;;;0.52;;
39776;SDS011;25453;48.162;14.510;2023-08-30T14:33:28;1.30;;;0.60;;
39776;SDS011;25453;48.162;14.510;2023-08-30T14:35:57;1.95;;;0.75;;
39776;SDS011;25453;48.162;14.510;2023-08-30T14:38:24;0.95;;;0.60;;
39776;SDS011;25453;48.162;14.510;2023-08-30T14:40:58;1.25;;;0.75;;
39776;SDS011;25453;48.162;14.510;2023-08-30T14:43:27;1.20;;;0.60;;
39776;SDS011;25453;48.162;14.510;2023-08-30T14:45:59;1.95;;;0.57;;
39776;SDS011;25453;48.162;14.510;2023-08-30T14:48:38;0.98;;;0.40;;
39776;SDS011;25453;48.162;14.510;2023-08-30T14:51:06;0.70;;;0.40;;
39776;SDS011;25453;48.162;14.510;2023-08-30T14:53:36;0.93;;;0.60;;
39776;SDS011;25453;48.162;14.510;2023-08-30T14:56:04;0.75;;;0.52;;
39776;SDS011;25453;48.162;14.510;2023-08-30T14:58:34;0.73;;;0.60;;